sensor_id;sensor_type;location;lat;lon;timestamp;pressure;altitude;pressure_sealevel;temperature;humidity
52949;BME280;38812;50.942;3.644;2023-03-14T00:00:34;99015.13;;;8.80;100.00
52949;BME280;38812;50.942;3.644;2023-03-14T00:02:59;99013.25;;;8.83;100.00
52949;BME280;38812;50.942;3.644;2023-03-14T00:05:25;99019.66;;;8.97;100.00
52949;BME280;38812;50.942;3.644;2023-03-14T00:07:50;99022.84;;;9.03;100.00
52949;BME280;38812;50.942;3.644;2023-03-14T00:10:16;99002.34;;;8.92;100.00
52949;BME280;38812;50.942;3.644;2023-03-14T00:12:43;99018.66;;;8.99;100.00
52949;BME280;38812;50.942;3.644;2023-03-14T00:15:08;99015.31;;;8.96;100.00
52949;BME280;38812;50.942;3.644;2023-03-14T00:17:35;99012.84;;;8.92;100.00
52949;BME280;38812;50.942;3.644;2023-03-14T00:20:05;99016.06;;;8.79;100.00
52949;BME280;38812;50.942;3.644;2023-03-14T00:22:38;99019.06;;;8.70;100.00
52949;BME280;38812;50.942;3.644;2023-03-14T00:25:05;99020.88;;;8.68;100.00
52949;BME280;38812;50.942;3.644;2023-03-14T00:27:31;99016.56;;;8.67;100.00
52949;BME280;38812;50.942;3.644;2023-03-14T00:29:56;99015.72;;;8.66;100.00
52949;BME280;38812;50.942;3.644;2023-03-14T00:32:22;98999.50;;;8.58;100.00
52949;BME280;38812;50.942;3.644;2023-03-14T00:34:47;99000.34;;;8.58;100.00
52949;BME280;38812;50.942;3.644;2023-03-14T00:37:13;98998.63;;;8.57;100.00
52949;BME280;38812;50.942;3.644;2023-03-14T00:39:39;99002.72;;;8.65;100.00
52949;BME280;38812;50.942;3.644;2023-03-14T00:42:04;99003.88;;;8.57;100.00
52949;BME280;38812;50.942;3.644;2023-03-14T00:44:30;98995.19;;;8.57;100.00
52949;BME280;38812;50.942;3.644;2023-03-14T00:46:55;98989.88;;;8.58;100.00
52949;BME280;38812;50.942;3.644;2023-03-14T00:49:21;98989.09;;;8.56;100.00
52949;BME280;38812;50.942;3.644;2023-03-14T00:51:46;98994.06;;;8.63;100.00
52949;BME280;38812;50.942;3.644;2023-03-14T00:54:11;98997.72;;;8.58;100.00
52949;BME280;38812;50.942;3.644;2023-03-14T00:56:37;99008.06;;;8.62;100.00
52949;BME280;38812;50.942;3.644;2023-03-14T00:59:02;98999.81;;;8.71;100.00
52949;BME280;38812;50.942;3.644;2023-03-14T01:01:28;99007.94;;;8.85;100.00
52949;BME280;38812;50.942;3.644;2023-03-14T01:03:54;99002.28;;;8.94;100.00
52949;BME280;38812;50.942;3.644;2023-03-14T01:06:23;98994.97;;;9.02;100.00
52949;BME280;38812;50.942;3.644;2023-03-14T01:08:49;98996.41;;;9.09;100.00
52949;BME280;38812;50.942;3.644;2023-03-14T01:11:19;98996.97;;;9.16;100.00
52949;BME280;38812;50.942;3.644;2023-03-14T01:13:45;98987.47;;;9.13;100.00
52949;BME280;38812;50.942;3.644;2023-03-14T01:16:11;98975.16;;;9.15;100.00
52949;BME280;38812;50.942;3.644;2023-03-14T01:18:39;98959.28;;;9.00;100.00
52949;BME280;38812;50.942;3.644;2023-03-14T01:21:11;98965.22;;;9.03;100.00
52949;BME280;38812;50.942;3.644;2023-03-14T01:23:37;98973.22;;;9.00;100.00
52949;BME280;38812;50.942;3.644;2023-03-14T01:26:03;98965.50;;;8.97;100.00
52949;BME280;38812;50.942;3.644;2023-03-14T01:28:28;98965.63;;;8.94;100.00
52949;BME280;38812;50.942;3.644;2023-03-14T01:30:54;98962.03;;;8.97;100.00
52949;BME280;38812;50.942;3.644;2023-03-14T01:33:19;98968.63;;;9.05;100.00
52949;BME280;38812;50.942;3.644;2023-03-14T01:35:44;98976.00;;;9.16;100.00
52949;BME280;38812;50.942;3.644;2023-03-14T01:38:10;98966.16;;;9.21;100.00
52949;BME280;38812;50.942;3.644;2023-03-14T01:40:42;98957.59;;;9.17;100.00
52949;BME280;38812;50.942;3.644;2023-03-14T01:43:16;98961.91;;;9.18;100.00
52949;BME280;38812;50.942;3.644;2023-03-14T01:48:37;98966.38;;;9.16;100.00
52949;BME280;38812;50.942;3.644;2023-03-14T01:51:06;98959.28;;;9.18;100.00
52949;BME280;38812;50.942;3.644;2023-03-14T01:53:35;98956.69;;;9.18;100.00
52949;BME280;38812;50.942;3.644;2023-03-14T01:56:01;98947.91;;;9.19;100.00
52949;BME280;38812;50.942;3.644;2023-03-14T01:58:30;98954.78;;;9.22;100.00
52949;BME280;38812;50.942;3.644;2023-03-14T02:01:01;98947.03;;;9.19;100.00
52949;BME280;38812;50.942;3.644;2023-03-14T02:03:29;98953.66;;;9.27;100.00
52949;BME280;38812;50.942;3.644;2023-03-14T02:05:59;98958.03;;;9.27;100.00
52949;BME280;38812;50.942;3.644;2023-03-14T02:08:29;98958.03;;;9.27;100.00
52949;BME280;38812;50.942;3.644;2023-03-14T02:10:56;98946.72;;;9.26;100.00
52949;BME280;38812;50.942;3.644;2023-03-14T02:13:21;98955.34;;;9.28;100.00
52949;BME280;38812;50.942;3.644;2023-03-14T02:15:47;98944.81;;;9.30;100.00
52949;BME280;38812;50.942;3.644;2023-03-14T02:18:14;98945.72;;;9.29;100.00
52949;BME280;38812;50.942;3.644;2023-03-14T02:23:51;98922.88;;;9.31;100.00
52949;BME280;38812;50.942;3.644;2023-03-14T02:28:51;98933.59;;;9.26;100.00
52949;BME280;38812;50.942;3.644;2023-03-14T02:31:18;98937.50;;;9.18;100.00
52949;BME280;38812;50.942;3.644;2023-03-14T02:33:46;98941.03;;;9.17;100.00
52949;BME280;38812;50.942;3.644;2023-03-14T02:36:13;98942.66;;;9.19;100.00
52949;BME280;38812;50.942;3.644;2023-03-14T02:41:05;98927.78;;;9.20;100.00
52949;BME280;38812;50.942;3.644;2023-03-14T02:43:30;98925.44;;;9.14;100.00
52949;BME280;38812;50.942;3.644;2023-03-14T02:45:56;98923.13;;;9.08;100.00
52949;BME280;38812;50.942;3.644;2023-03-14T02:48:26;98915.66;;;8.99;100.00
52949;BME280;38812;50.942;3.644;2023-03-14T02:50:54;98910.63;;;8.94;100.00
52949;BME280;38812;50.942;3.644;2023-03-14T02:53:24;98899.31;;;8.93;100.00
52949;BME280;38812;50.942;3.644;2023-03-14T02:55:51;98908.59;;;9.01;100.00
52949;BME280;38812;50.942;3.644;2023-03-14T02:58:17;98898.31;;;8.96;100.00
52949;BME280;38812;50.942;3.644;2023-03-14T03:00:43;98897.66;;;8.91;100.00
52949;BME280;38812;50.942;3.644;2023-03-14T03:03:09;98899.44;;;8.90;100.00
52949;BME280;38812;50.942;3.644;2023-03-14T03:05:35;98900.00;;;8.78;100.00
52949;BME280;38812;50.942;3.644;2023-03-14T03:08:00;98901.78;;;8.78;100.00
52949;BME280;38812;50.942;3.644;2023-03-14T03:10:27;98905.03;;;8.83;100.00
52949;BME280;38812;50.942;3.644;2023-03-14T03:12:52;98903.88;;;8.88;100.00
52949;BME280;38812;50.942;3.644;2023-03-14T03:15:18;98895.84;;;8.93;100.00
52949;BME280;38812;50.942;3.644;2023-03-14T03:17:43;98881.41;;;8.84;100.00
52949;BME280;38812;50.942;3.644;2023-03-14T03:20:09;98896.47;;;8.79;100.00
52949;BME280;38812;50.942;3.644;2023-03-14T03:22:38;98909.03;;;8.71;100.00
52949;BME280;38812;50.942;3.644;2023-03-14T03:25:05;98904.66;;;8.72;100.00
52949;BME280;38812;50.942;3.644;2023-03-14T03:27:32;98900.06;;;8.77;100.00
52949;BME280;38812;50.942;3.644;2023-03-14T03:29:58;98907.34;;;8.89;100.00
52949;BME280;38812;50.942;3.644;2023-03-14T03:32:23;98904.47;;;8.95;100.00
52949;BME280;38812;50.942;3.644;2023-03-14T03:34:49;98909.09;;;9.09;100.00
52949;BME280;38812;50.942;3.644;2023-03-14T03:37:14;98899.63;;;9.06;100.00
52949;BME280;38812;50.942;3.644;2023-03-14T03:39:40;98905.34;;;9.14;100.00
52949;BME280;38812;50.942;3.644;2023-03-14T03:42:05;98899.09;;;9.17;100.00
52949;BME280;38812;50.942;3.644;2023-03-14T03:44:30;98894.72;;;9.17;100.00
52949;BME280;38812;50.942;3.644;2023-03-14T03:46:56;98904.94;;;9.23;100.00
52949;BME280;38812;50.942;3.644;2023-03-14T03:49:21;98903.34;;;9.19;100.00
52949;BME280;38812;50.942;3.644;2023-03-14T03:51:47;98909.50;;;9.18;100.00
52949;BME280;38812;50.942;3.644;2023-03-14T03:54:12;98910.44;;;9.17;100.00
52949;BME280;38812;50.942;3.644;2023-03-14T03:56:37;98908.88;;;9.13;100.00
52949;BME280;38812;50.942;3.644;2023-03-14T03:59:03;98903.94;;;9.07;100.00
52949;BME280;38812;50.942;3.644;2023-03-14T04:01:28;98905.63;;;9.08;100.00
52949;BME280;38812;50.942;3.644;2023-03-14T04:03:54;98908.09;;;9.11;100.00
52949;BME280;38812;50.942;3.644;2023-03-14T04:06:19;98906.31;;;9.12;100.00
52949;BME280;38812;50.942;3.644;2023-03-14T04:08:45;98913.31;;;9.11;100.00
52949;BME280;38812;50.942;3.644;2023-03-14T04:11:10;98922.03;;;9.12;100.00
52949;BME280;38812;50.942;3.644;2023-03-14T04:13:35;98922.03;;;9.12;100.00
52949;BME280;38812;50.942;3.644;2023-03-14T04:16:01;98917.66;;;9.12;100.00
52949;BME280;38812;50.942;3.644;2023-03-14T04:18:26;98912.56;;;9.09;100.00
52949;BME280;38812;50.942;3.644;2023-03-14T04:20:53;98918.56;;;9.11;100.00
52949;BME280;38812;50.942;3.644;2023-03-14T04:23:19;98920.44;;;9.09;100.00
52949;BME280;38812;50.942;3.644;2023-03-14T04:25:44;98914.41;;;9.07;100.00
52949;BME280;38812;50.942;3.644;2023-03-14T04:28:10;98927.00;;;9.18;100.00
52949;BME280;38812;50.942;3.644;2023-03-14T04:30:35;98917.44;;;9.17;100.00
52949;BME280;38812;50.942;3.644;2023-03-14T04:33:00;98923.19;;;9.25;100.00
52949;BME280;38812;50.942;3.644;2023-03-14T04:35:26;98924.19;;;9.22;100.00
52949;BME280;38812;50.942;3.644;2023-03-14T04:37:51;98926.72;;;9.24;100.00
52949;BME280;38812;50.942;3.644;2023-03-14T04:40:17;98923.91;;;9.28;100.00
52949;BME280;38812;50.942;3.644;2023-03-14T04:42:43;98936.09;;;9.30;100.00
52949;BME280;38812;50.942;3.644;2023-03-14T04:45:09;98929.16;;;9.28;100.00
52949;BME280;38812;50.942;3.644;2023-03-14T04:47:35;98920.50;;;9.26;100.00
52949;BME280;38812;50.942;3.644;2023-03-14T04:50:01;98924.03;;;9.25;100.00
52949;BME280;38812;50.942;3.644;2023-03-14T04:52:27;98929.28;;;9.25;100.00
52949;BME280;38812;50.942;3.644;2023-03-14T04:54:53;98926.53;;;9.28;100.00
52949;BME280;38812;50.942;3.644;2023-03-14T04:57:18;98924.97;;;9.24;100.00
52949;BME280;38812;50.942;3.644;2023-03-14T04:59:43;98928.91;;;9.33;100.00
52949;BME280;38812;50.942;3.644;2023-03-14T05:02:09;98924.69;;;9.31;100.00
52949;BME280;38812;50.942;3.644;2023-03-14T05:04:34;98920.38;;;9.30;100.00
52949;BME280;38812;50.942;3.644;2023-03-14T05:07:00;98922.88;;;9.31;100.00
52949;BME280;38812;50.942;3.644;2023-03-14T05:09:26;98916.38;;;9.40;100.00
52949;BME280;38812;50.942;3.644;2023-03-14T05:11:51;98917.38;;;9.37;100.00
52949;BME280;38812;50.942;3.644;2023-03-14T05:14:17;98926.88;;;9.40;100.00
52949;BME280;38812;50.942;3.644;2023-03-14T05:16:42;98926.22;;;9.35;100.00
52949;BME280;38812;50.942;3.644;2023-03-14T05:19:08;98916.66;;;9.34;100.00
52949;BME280;38812;50.942;3.644;2023-03-14T05:21:33;98908.00;;;9.32;100.00
52949;BME280;38812;50.942;3.644;2023-03-14T05:23:59;98917.03;;;9.26;100.00
52949;BME280;38812;50.942;3.644;2023-03-14T05:26:24;98906.91;;;9.18;100.00
52949;BME280;38812;50.942;3.644;2023-03-14T05:28:49;98917.50;;;9.15;100.00
52949;BME280;38812;50.942;3.644;2023-03-14T05:31:15;98915.94;;;9.11;100.00
52949;BME280;38812;50.942;3.644;2023-03-14T05:33:40;98910.03;;;9.08;100.00
52949;BME280;38812;50.942;3.644;2023-03-14T05:36:06;98906.75;;;9.03;100.00
52949;BME280;38812;50.942;3.644;2023-03-14T05:38:32;98919.06;;;9.01;100.00
52949;BME280;38812;50.942;3.644;2023-03-14T05:40:57;98921.75;;;8.99;100.00
52949;BME280;38812;50.942;3.644;2023-03-14T05:43:23;98952.34;;;8.99;100.00
52949;BME280;38812;50.942;3.644;2023-03-14T05:45:48;99009.84;;;9.20;100.00
52949;BME280;38812;50.942;3.644;2023-03-14T05:48:14;99027.56;;;8.54;100.00
52949;BME280;38812;50.942;3.644;2023-03-14T05:50:39;99034.28;;;8.18;100.00
52949;BME280;38812;50.942;3.644;2023-03-14T05:53:04;99044.00;;;7.93;100.00
52949;BME280;38812;50.942;3.644;2023-03-14T05:55:30;99050.72;;;7.76;100.00
52949;BME280;38812;50.942;3.644;2023-03-14T05:57:56;99059.19;;;7.60;100.00
52949;BME280;38812;50.942;3.644;2023-03-14T06:00:21;99063.16;;;7.46;100.00
52949;BME280;38812;50.942;3.644;2023-03-14T06:02:47;99086.72;;;7.45;100.00
52949;BME280;38812;50.942;3.644;2023-03-14T06:05:12;99096.53;;;7.38;100.00
52949;BME280;38812;50.942;3.644;2023-03-14T06:07:38;99105.38;;;7.36;100.00
52949;BME280;38812;50.942;3.644;2023-03-14T06:10:04;99113.63;;;7.23;100.00
52949;BME280;38812;50.942;3.644;2023-03-14T06:12:29;99131.31;;;7.15;100.00
52949;BME280;38812;50.942;3.644;2023-03-14T06:14:55;99139.56;;;7.03;100.00
52949;BME280;38812;50.942;3.644;2023-03-14T06:17:20;99162.34;;;6.98;100.00
52949;BME280;38812;50.942;3.644;2023-03-14T06:19:45;99148.03;;;6.85;100.00
52949;BME280;38812;50.942;3.644;2023-03-14T06:22:11;99178.06;;;6.97;100.00
52949;BME280;38812;50.942;3.644;2023-03-14T06:24:36;99179.38;;;6.83;100.00
52949;BME280;38812;50.942;3.644;2023-03-14T06:27:02;99179.28;;;6.86;100.00
52949;BME280;38812;50.942;3.644;2023-03-14T06:29:28;99192.38;;;6.85;100.00
52949;BME280;38812;50.942;3.644;2023-03-14T06:31:54;99210.66;;;6.85;100.00
52949;BME280;38812;50.942;3.644;2023-03-14T06:34:19;99214.13;;;6.85;100.00
52949;BME280;38812;50.942;3.644;2023-03-14T06:36:44;99209.31;;;6.72;100.00
52949;BME280;38812;50.942;3.644;2023-03-14T06:39:10;99233.84;;;6.94;100.00
52949;BME280;38812;50.942;3.644;2023-03-14T06:41:35;99246.22;;;6.89;100.00
52949;BME280;38812;50.942;3.644;2023-03-14T06:44:01;99241.09;;;6.86;100.00
52949;BME280;38812;50.942;3.644;2023-03-14T06:46:26;99261.25;;;6.81;100.00
52949;BME280;38812;50.942;3.644;2023-03-14T06:48:52;99272.97;;;6.68;100.00
52949;BME280;38812;50.942;3.644;2023-03-14T06:51:17;99274.66;;;6.70;100.00
52949;BME280;38812;50.942;3.644;2023-03-14T06:53:42;99285.81;;;6.74;100.00
52949;BME280;38812;50.942;3.644;2023-03-14T06:56:08;99296.38;;;6.71;100.00
52949;BME280;38812;50.942;3.644;2023-03-14T06:58:33;99305.88;;;6.72;100.00
52949;BME280;38812;50.942;3.644;2023-03-14T07:00:59;99315.25;;;6.79;100.00
52949;BME280;38812;50.942;3.644;2023-03-14T07:03:24;99318.75;;;6.78;100.00
52949;BME280;38812;50.942;3.644;2023-03-14T07:05:50;99308.56;;;6.70;100.00
52949;BME280;38812;50.942;3.644;2023-03-14T07:08:16;99325.53;;;6.85;100.00
52949;BME280;38812;50.942;3.644;2023-03-14T07:10:41;99351.41;;;6.93;100.00
52949;BME280;38812;50.942;3.644;2023-03-14T07:13:07;99345.38;;;6.91;100.00
52949;BME280;38812;50.942;3.644;2023-03-14T07:15:33;99365.41;;;6.90;100.00
52949;BME280;38812;50.942;3.644;2023-03-14T07:17:58;99359.25;;;6.93;100.00
52949;BME280;38812;50.942;3.644;2023-03-14T07:20:23;99379.47;;;6.84;100.00
52949;BME280;38812;50.942;3.644;2023-03-14T07:22:49;99385.56;;;6.85;100.00
52949;BME280;38812;50.942;3.644;2023-03-14T07:25:15;99389.97;;;6.83;100.00
52949;BME280;38812;50.942;3.644;2023-03-14T07:27:43;99402.91;;;6.87;100.00
52949;BME280;38812;50.942;3.644;2023-03-14T07:30:09;99406.28;;;6.91;100.00
52949;BME280;38812;50.942;3.644;2023-03-14T07:32:35;99426.44;;;6.86;100.00
52949;BME280;38812;50.942;3.644;2023-03-14T07:35:00;99430.53;;;6.64;100.00
52949;BME280;38812;50.942;3.644;2023-03-14T07:37:26;99457.50;;;6.64;100.00
52949;BME280;38812;50.942;3.644;2023-03-14T07:39:51;99445.56;;;6.54;100.00
52949;BME280;38812;50.942;3.644;2023-03-14T07:42:16;99465.34;;;6.63;100.00
52949;BME280;38812;50.942;3.644;2023-03-14T07:44:42;99483.03;;;6.51;100.00
52949;BME280;38812;50.942;3.644;2023-03-14T07:47:07;99478.81;;;6.47;100.00
52949;BME280;38812;50.942;3.644;2023-03-14T07:49:32;99500.66;;;6.43;100.00
52949;BME280;38812;50.942;3.644;2023-03-14T07:51:58;99496.41;;;6.39;100.00
52949;BME280;38812;50.942;3.644;2023-03-14T07:54:24;99516.31;;;6.43;100.00
52949;BME280;38812;50.942;3.644;2023-03-14T07:56:50;99517.38;;;6.35;100.00
52949;BME280;38812;50.942;3.644;2023-03-14T07:59:17;99522.53;;;6.38;100.00
52949;BME280;38812;50.942;3.644;2023-03-14T08:01:42;99531.31;;;6.34;100.00
52949;BME280;38812;50.942;3.644;2023-03-14T08:04:08;99534.22;;;6.23;100.00
52949;BME280;38812;50.942;3.644;2023-03-14T08:06:35;99546.88;;;6.38;100.00
52949;BME280;38812;50.942;3.644;2023-03-14T08:09:00;99572.00;;;6.42;100.00
52949;BME280;38812;50.942;3.644;2023-03-14T08:11:26;99570.50;;;6.31;100.00
52949;BME280;38812;50.942;3.644;2023-03-14T08:13:51;99577.41;;;6.33;100.00
52949;BME280;38812;50.942;3.644;2023-03-14T08:16:17;99590.66;;;6.26;100.00
52949;BME280;38812;50.942;3.644;2023-03-14T08:18:43;99597.72;;;6.21;100.00
52949;BME280;38812;50.942;3.644;2023-03-14T08:21:09;99597.25;;;6.03;100.00
52949;BME280;38812;50.942;3.644;2023-03-14T08:23:34;99610.13;;;6.09;100.00
52949;BME280;38812;50.942;3.644;2023-03-14T08:26:00;99626.50;;;6.16;100.00
52949;BME280;38812;50.942;3.644;2023-03-14T08:28:25;99648.41;;;6.07;100.00
52949;BME280;38812;50.942;3.644;2023-03-14T08:30:58;99651.69;;;6.17;100.00
52949;BME280;38812;50.942;3.644;2023-03-14T08:33:24;99652.03;;;6.02;100.00
52949;BME280;38812;50.942;3.644;2023-03-14T08:35:53;99669.34;;;6.06;100.00
52949;BME280;38812;50.942;3.644;2023-03-14T08:38:19;99683.16;;;6.08;100.00
52949;BME280;38812;50.942;3.644;2023-03-14T08:40:44;99690.47;;;6.32;100.00
52949;BME280;38812;50.942;3.644;2023-03-14T08:43:09;99675.44;;;6.43;100.00
52949;BME280;38812;50.942;3.644;2023-03-14T08:45:35;99697.22;;;6.42;100.00
52949;BME280;38812;50.942;3.644;2023-03-14T08:48:00;99698.94;;;6.43;100.00
52949;BME280;38812;50.942;3.644;2023-03-14T08:50:26;99715.31;;;6.87;100.00
52949;BME280;38812;50.942;3.644;2023-03-14T08:52:51;99715.25;;;6.90;100.00
52949;BME280;38812;50.942;3.644;2023-03-14T08:55:17;99714.03;;;6.68;100.00
52949;BME280;38812;50.942;3.644;2023-03-14T08:57:42;99736.06;;;6.54;100.00
52949;BME280;38812;50.942;3.644;2023-03-14T09:00:08;99727.19;;;6.63;100.00
52949;BME280;38812;50.942;3.644;2023-03-14T09:02:37;99743.56;;;6.70;100.00
52949;BME280;38812;50.942;3.644;2023-03-14T09:05:03;99750.34;;;6.77;100.00
52949;BME280;38812;50.942;3.644;2023-03-14T09:07:29;99755.59;;;6.75;100.00
52949;BME280;38812;50.942;3.644;2023-03-14T09:09:54;99762.63;;;6.72;100.00
52949;BME280;38812;50.942;3.644;2023-03-14T09:12:20;99770.63;;;6.66;100.00
52949;BME280;38812;50.942;3.644;2023-03-14T09:14:45;99752.19;;;6.72;100.00
52949;BME280;38812;50.942;3.644;2023-03-14T09:17:11;99773.06;;;6.72;100.00
52949;BME280;38812;50.942;3.644;2023-03-14T09:19:36;99791.09;;;6.84;100.00
52949;BME280;38812;50.942;3.644;2023-03-14T09:22:02;99797.28;;;6.78;100.00
52949;BME280;38812;50.942;3.644;2023-03-14T09:24:27;99807.84;;;6.74;100.00
52949;BME280;38812;50.942;3.644;2023-03-14T09:26:54;99818.44;;;6.68;100.00
52949;BME280;38812;50.942;3.644;2023-03-14T09:29:20;99822.94;;;6.60;100.00
52949;BME280;38812;50.942;3.644;2023-03-14T09:31:45;99833.38;;;6.60;100.00
52949;BME280;38812;50.942;3.644;2023-03-14T09:34:10;99819.28;;;6.68;100.00
52949;BME280;38812;50.942;3.644;2023-03-14T09:36:36;99832.97;;;6.78;100.00
52949;BME280;38812;50.942;3.644;2023-03-14T09:39:03;99838.91;;;6.86;100.00
52949;BME280;38812;50.942;3.644;2023-03-14T09:41:32;99851.06;;;6.87;100.00
52949;BME280;38812;50.942;3.644;2023-03-14T09:44:20;99858.59;;;7.01;100.00
52949;BME280;38812;50.942;3.644;2023-03-14T09:46:50;99865.63;;;6.97;100.00
52949;BME280;38812;50.942;3.644;2023-03-14T09:49:26;99874.41;;;6.93;100.00
52949;BME280;38812;50.942;3.644;2023-03-14T09:51:54;99873.47;;;6.97;100.00
52949;BME280;38812;50.942;3.644;2023-03-14T09:54:37;99882.56;;;7.18;100.00
52949;BME280;38812;50.942;3.644;2023-03-14T09:57:05;99894.41;;;7.34;100.00
52949;BME280;38812;50.942;3.644;2023-03-14T09:59:35;99898.63;;;7.40;100.00
52949;BME280;38812;50.942;3.644;2023-03-14T10:02:12;99906.25;;;7.84;100.00
52949;BME280;38812;50.942;3.644;2023-03-14T10:04:40;99913.22;;;8.19;100.00
52949;BME280;38812;50.942;3.644;2023-03-14T10:07:13;99922.13;;;7.78;100.00
52949;BME280;38812;50.942;3.644;2023-03-14T10:09:40;99924.47;;;7.52;100.00
52949;BME280;38812;50.942;3.644;2023-03-14T10:12:08;99931.97;;;7.29;100.00
52949;BME280;38812;50.942;3.644;2023-03-14T10:14:38;99947.94;;;7.15;100.00
52949;BME280;38812;50.942;3.644;2023-03-14T10:17:12;99959.22;;;6.74;100.00
52949;BME280;38812;50.942;3.644;2023-03-14T10:19:51;99972.91;;;6.86;100.00
52949;BME280;38812;50.942;3.644;2023-03-14T10:22:18;99968.09;;;6.67;100.00
52949;BME280;38812;50.942;3.644;2023-03-14T10:24:54;99993.00;;;6.35;100.00
52949;BME280;38812;50.942;3.644;2023-03-14T10:27:31;99987.88;;;6.29;100.00
52949;BME280;38812;50.942;3.644;2023-03-14T10:30:00;99995.41;;;5.97;100.00
52949;BME280;38812;50.942;3.644;2023-03-14T10:32:38;100014.56;;;5.93;100.00
52949;BME280;38812;50.942;3.644;2023-03-14T10:37:58;100030.16;;;5.97;100.00
52949;BME280;38812;50.942;3.644;2023-03-14T10:40:31;100041.56;;;5.85;100.00
52949;BME280;38812;50.942;3.644;2023-03-14T10:43:01;100031.53;;;5.61;100.00
52949;BME280;38812;50.942;3.644;2023-03-14T10:45:35;100049.88;;;5.50;100.00
52949;BME280;38812;50.942;3.644;2023-03-14T10:48:23;100082.94;;;5.47;100.00
52949;BME280;38812;50.942;3.644;2023-03-14T10:51:05;100076.97;;;5.40;100.00
52949;BME280;38812;50.942;3.644;2023-03-14T10:56:05;100095.28;;;5.33;100.00
52949;BME280;38812;50.942;3.644;2023-03-14T10:58:33;100093.44;;;5.41;100.00
52949;BME280;38812;50.942;3.644;2023-03-14T11:01:16;100096.16;;;5.32;100.00
52949;BME280;38812;50.942;3.644;2023-03-14T11:06:56;100130.00;;;5.32;100.00
52949;BME280;38812;50.942;3.644;2023-03-14T11:10:01;100137.03;;;5.24;100.00
52949;BME280;38812;50.942;3.644;2023-03-14T11:23:18;100159.50;;;5.34;100.00
52949;BME280;38812;50.942;3.644;2023-03-14T11:28:41;100174.25;;;5.35;100.00
52949;BME280;38812;50.942;3.644;2023-03-14T11:34:01;100176.81;;;5.41;100.00
52949;BME280;38812;50.942;3.644;2023-03-14T11:36:31;100169.72;;;5.52;100.00
52949;BME280;38812;50.942;3.644;2023-03-14T11:38:59;100183.41;;;5.69;100.00
52949;BME280;38812;50.942;3.644;2023-03-14T11:41:39;100181.66;;;5.71;100.00
52949;BME280;38812;50.942;3.644;2023-03-14T11:44:14;100184.84;;;5.96;100.00
52949;BME280;38812;50.942;3.644;2023-03-14T11:47:03;100189.97;;;6.04;100.00
52949;BME280;38812;50.942;3.644;2023-03-14T11:49:39;100197.81;;;6.02;100.00
52949;BME280;38812;50.942;3.644;2023-03-14T11:52:11;100216.19;;;5.92;100.00
52949;BME280;38812;50.942;3.644;2023-03-14T11:57:18;100223.78;;;6.10;100.00
52949;BME280;38812;50.942;3.644;2023-03-14T12:02:45;100230.75;;;6.09;100.00
52949;BME280;38812;50.942;3.644;2023-03-14T12:10:46;100274.88;;;5.42;100.00
52949;BME280;38812;50.942;3.644;2023-03-14T12:13:15;100279.28;;;5.40;100.00
52949;BME280;38812;50.942;3.644;2023-03-14T12:15:49;100275.88;;;5.29;100.00
52949;BME280;38812;50.942;3.644;2023-03-14T12:18:33;100291.50;;;5.29;100.00
52949;BME280;38812;50.942;3.644;2023-03-14T12:21:04;100300.19;;;5.31;100.00
52949;BME280;38812;50.942;3.644;2023-03-14T12:26:16;100307.09;;;5.35;100.00
52949;BME280;38812;50.942;3.644;2023-03-14T12:28:44;100321.81;;;5.40;100.00
52949;BME280;38812;50.942;3.644;2023-03-14T12:42:11;100367.03;;;5.29;100.00
52949;BME280;38812;50.942;3.644;2023-03-14T12:44:41;100364.44;;;5.26;100.00
52949;BME280;38812;50.942;3.644;2023-03-14T12:49:49;100373.13;;;5.25;100.00
52949;BME280;38812;50.942;3.644;2023-03-14T12:52:19;100374.88;;;5.26;100.00
52949;BME280;38812;50.942;3.644;2023-03-14T13:00:23;100405.47;;;4.93;100.00
52949;BME280;38812;50.942;3.644;2023-03-14T13:03:12;100412.41;;;4.93;100.00
52949;BME280;38812;50.942;3.644;2023-03-14T13:05:55;100423.63;;;5.02;100.00
52949;BME280;38812;50.942;3.644;2023-03-14T13:08:43;100439.31;;;4.93;100.00
52949;BME280;38812;50.942;3.644;2023-03-14T13:11:15;100447.09;;;4.96;100.00
52949;BME280;38812;50.942;3.644;2023-03-14T13:13:45;100454.06;;;4.85;100.00
52949;BME280;38812;50.942;3.644;2023-03-14T13:16:17;100447.19;;;4.73;100.00
52949;BME280;38812;50.942;3.644;2023-03-14T13:18:45;100456.59;;;5.00;100.00
52949;BME280;38812;50.942;3.644;2023-03-14T13:21:19;100451.28;;;5.22;100.00
52949;BME280;38812;50.942;3.644;2023-03-14T13:24:04;100461.50;;;5.58;100.00
52949;BME280;38812;50.942;3.644;2023-03-14T13:26:39;100461.34;;;5.79;100.00
52949;BME280;38812;50.942;3.644;2023-03-14T13:31:46;100478.63;;;5.86;100.00
52949;BME280;38812;50.942;3.644;2023-03-14T13:34:12;100482.19;;;5.79;100.00
52949;BME280;38812;50.942;3.644;2023-03-14T13:36:38;100496.88;;;5.94;100.00
52949;BME280;38812;50.942;3.644;2023-03-14T13:39:09;100498.72;;;5.74;100.00
52949;BME280;38812;50.942;3.644;2023-03-14T13:41:38;100501.31;;;5.78;100.00
52949;BME280;38812;50.942;3.644;2023-03-14T13:44:07;100503.03;;;5.79;100.00
52949;BME280;38812;50.942;3.644;2023-03-14T13:46:35;100512.59;;;5.82;100.00
52949;BME280;38812;50.942;3.644;2023-03-14T13:49:06;100498.72;;;5.78;100.00
52949;BME280;38812;50.942;3.644;2023-03-14T13:51:34;100531.72;;;5.81;100.00
52949;BME280;38812;50.942;3.644;2023-03-14T13:54:03;100536.13;;;5.67;100.00
52949;BME280;38812;50.942;3.644;2023-03-14T13:56:31;100537.06;;;5.57;100.00
52949;BME280;38812;50.942;3.644;2023-03-14T13:58:57;100576.16;;;5.55;100.00
52949;BME280;38812;50.942;3.644;2023-03-14T14:01:32;100591.00;;;5.38;100.00
52949;BME280;38812;50.942;3.644;2023-03-14T14:04:05;100606.72;;;5.01;100.00
52949;BME280;38812;50.942;3.644;2023-03-14T14:06:34;100623.25;;;4.87;100.00
52949;BME280;38812;50.942;3.644;2023-03-14T14:09:11;100651.00;;;4.77;100.00
52949;BME280;38812;50.942;3.644;2023-03-14T14:14:23;100638.88;;;4.64;100.00